createdAt,value
2023-04-27T00:00:59.338Z,2.47
2023-04-27T00:03:29.670Z,2.60
2023-04-27T00:05:57.924Z,3.10
2023-04-27T00:08:26.000Z,2.50
2023-04-27T00:10:54.015Z,2.40
2023-04-27T00:13:22.027Z,2.50
2023-04-27T00:15:50.072Z,2.63
2023-04-27T00:18:18.099Z,2.83
2023-04-27T00:20:47.770Z,3.30
2023-04-27T00:23:16.018Z,2.83
2023-04-27T00:25:44.052Z,2.93
2023-04-27T00:28:12.068Z,2.83
2023-04-27T00:30:40.071Z,3.33
2023-04-27T00:33:08.193Z,2.90
2023-04-27T00:35:36.300Z,2.60
2023-04-27T00:38:05.685Z,2.70
2023-04-27T00:40:35.265Z,2.90
2023-04-27T00:43:03.292Z,2.97
2023-04-27T00:45:31.318Z,3.00
2023-04-27T00:48:00.390Z,3.20
2023-04-27T00:50:30.704Z,3.00
2023-04-27T00:52:58.874Z,3.00
2023-04-27T00:55:28.280Z,3.60
2023-04-27T00:57:56.563Z,2.63
2023-04-27T01:00:24.776Z,3.20
2023-04-27T01:02:53.822Z,3.00
2023-04-27T01:05:22.874Z,3.07
2023-04-27T01:07:50.911Z,3.10
2023-04-27T01:10:19.028Z,3.40
2023-04-27T01:12:48.547Z,2.90
2023-04-27T01:15:16.781Z,3.00
2023-04-27T01:17:44.830Z,2.90
2023-04-27T01:20:13.287Z,3.37
2023-04-27T01:22:41.829Z,3.33
2023-04-27T01:25:12.628Z,3.30
2023-04-27T01:27:40.678Z,3.43
2023-04-27T01:30:09.436Z,3.77
2023-04-27T01:32:38.905Z,3.30
2023-04-27T01:35:07.774Z,3.47
2023-04-27T01:37:36.370Z,3.63
2023-04-27T01:40:06.361Z,3.43
2023-04-27T01:42:35.838Z,3.57
2023-04-27T01:45:04.313Z,3.70
2023-04-27T01:47:33.271Z,3.53
2023-04-27T01:50:01.285Z,3.97
2023-04-27T01:52:29.334Z,3.50
2023-04-27T01:54:57.349Z,3.63
2023-04-27T01:57:25.440Z,3.30
2023-04-27T01:59:54.876Z,4.03
2023-04-27T02:02:23.462Z,4.03
2023-04-27T02:04:51.928Z,3.40
2023-04-27T02:07:20.574Z,3.93
2023-04-27T02:09:48.604Z,3.73
2023-04-27T02:12:16.631Z,3.93
2023-04-27T02:14:44.662Z,4.37
2023-04-27T02:17:14.220Z,3.90
2023-04-27T02:19:42.236Z,3.43
2023-04-27T02:22:10.387Z,4.33
2023-04-27T02:24:38.405Z,3.97
2023-04-27T02:27:06.489Z,3.80
2023-04-27T02:29:38.749Z,3.90
2023-04-27T02:32:07.411Z,3.70
2023-04-27T02:34:36.969Z,3.40
2023-04-27T02:37:05.214Z,2.80
2023-04-27T02:39:33.238Z,3.10
2023-04-27T02:42:01.464Z,2.70
2023-04-27T02:44:29.509Z,3.20
2023-04-27T02:46:59.119Z,3.00
2023-04-27T02:49:27.312Z,2.97
2023-04-27T02:51:58.044Z,2.97
2023-04-27T02:54:27.486Z,2.33
2023-04-27T02:56:55.524Z,2.67
2023-04-27T02:59:23.676Z,2.53
2023-04-27T03:01:51.782Z,2.80
2023-04-27T03:04:20.123Z,3.00
2023-04-27T03:06:49.869Z,2.60
2023-04-27T03:09:19.270Z,3.10
2023-04-27T03:11:47.307Z,3.10
2023-04-27T03:14:15.401Z,3.17
2023-04-27T03:16:43.493Z,2.63
2023-04-27T03:19:14.791Z,3.57
2023-04-27T03:21:43.054Z,3.23
2023-04-27T03:24:11.175Z,3.40
2023-04-27T03:26:40.562Z,2.97
2023-04-27T03:29:08.598Z,3.63
2023-04-27T03:31:36.677Z,3.57
2023-04-27T03:34:04.752Z,3.17
2023-04-27T03:36:33.148Z,3.50
2023-04-27T03:39:01.304Z,3.90
2023-04-27T03:41:29.513Z,3.83
2023-04-27T03:43:58.986Z,3.53
2023-04-27T03:46:27.248Z,4.30
2023-04-27T03:48:55.475Z,3.63
2023-04-27T03:51:23.552Z,3.90
2023-04-27T03:53:51.603Z,4.23
2023-04-27T03:56:19.962Z,3.90
2023-04-27T03:58:47.967Z,3.57
2023-04-27T04:01:22.070Z,3.47
2023-04-27T04:03:51.681Z,3.30
2023-04-27T04:06:19.892Z,3.93
2023-04-27T04:08:47.940Z,4.03
2023-04-27T04:11:16.032Z,4.20
2023-04-27T04:13:44.459Z,4.53
2023-04-27T04:16:13.633Z,4.00
2023-04-27T04:18:43.179Z,3.63
2023-04-27T04:21:12.527Z,3.87
2023-04-27T04:23:41.685Z,4.00
2023-04-27T04:26:09.919Z,3.57
2023-04-27T04:28:38.178Z,3.83
2023-04-27T04:31:06.587Z,4.33
2023-04-27T04:33:34.691Z,4.70
2023-04-27T04:36:06.716Z,4.87
2023-04-27T04:38:35.403Z,4.30
2023-04-27T04:41:03.556Z,4.57
2023-04-27T04:43:34.366Z,4.43
2023-04-27T04:46:06.517Z,4.90
2023-04-27T04:48:35.534Z,4.43
2023-04-27T04:51:07.156Z,4.43
2023-04-27T04:53:37.164Z,5.13
2023-04-27T04:56:12.101Z,4.57
2023-04-27T04:58:40.642Z,4.80
2023-04-27T05:01:08.754Z,4.83
2023-04-27T05:03:36.876Z,4.80
2023-04-27T05:06:05.161Z,5.20
2023-04-27T05:08:34.558Z,4.30
2023-04-27T05:11:02.707Z,4.27
2023-04-27T05:13:32.218Z,4.07
2023-04-27T05:16:00.321Z,3.80
2023-04-27T05:18:28.363Z,3.80
2023-04-27T05:20:56.486Z,3.50
2023-04-27T05:23:24.520Z,3.53
2023-04-27T05:25:53.937Z,3.47
2023-04-27T05:28:21.996Z,3.77
2023-04-27T05:30:49.974Z,3.20
2023-04-27T05:33:18.040Z,3.47
2023-04-27T05:35:46.033Z,3.23
2023-04-27T05:38:17.504Z,2.97
2023-04-27T05:40:45.587Z,2.90
2023-04-27T05:43:14.979Z,3.40
2023-04-27T05:45:43.300Z,3.30
2023-04-27T05:48:11.392Z,3.23
2023-04-27T05:50:39.398Z,2.77
2023-04-27T05:53:07.705Z,2.80
2023-04-27T05:55:35.879Z,3.20
2023-04-27T05:58:07.979Z,3.03
2023-04-27T06:00:38.825Z,2.50
2023-04-27T06:03:07.209Z,2.70
2023-04-27T06:05:35.692Z,2.60
2023-04-27T06:08:03.961Z,2.80
2023-04-27T06:10:32.238Z,2.80
2023-04-27T06:13:00.256Z,3.10
2023-04-27T06:15:28.259Z,3.00
2023-04-27T06:17:57.839Z,3.33
2023-04-27T06:20:26.005Z,2.87
2023-04-27T06:22:54.060Z,2.73
2023-04-27T06:25:23.266Z,2.50
2023-04-27T06:27:53.088Z,3.03
2023-04-27T06:30:21.258Z,3.13
2023-04-27T06:32:49.326Z,3.03
2023-04-27T06:35:19.001Z,3.57
2023-04-27T06:37:47.260Z,3.23
2023-04-27T06:40:15.429Z,3.30
2023-04-27T06:42:43.506Z,3.67
2023-04-27T06:45:13.722Z,3.80
2023-04-27T06:47:44.180Z,3.40
2023-04-27T06:50:12.262Z,3.43
2023-04-27T06:52:41.780Z,3.30
2023-04-27T06:55:10.231Z,3.13
2023-04-27T06:57:38.254Z,3.03
2023-04-27T07:00:07.523Z,2.93
2023-04-27T07:02:35.821Z,2.73
2023-04-27T07:05:04.151Z,2.70
2023-04-27T07:07:32.198Z,3.13
2023-04-27T07:10:01.663Z,2.53
2023-04-27T07:12:29.814Z,3.07
2023-04-27T07:14:57.840Z,2.90
2023-04-27T07:17:26.089Z,2.53
2023-04-27T07:19:54.313Z,2.60
2023-04-27T07:22:22.846Z,3.03
2023-04-27T07:24:51.040Z,2.43
2023-04-27T07:27:20.464Z,2.60
2023-04-27T07:29:48.489Z,2.30
2023-04-27T07:32:16.936Z,2.57
2023-04-27T07:34:52.693Z,2.03
2023-04-27T07:37:21.989Z,2.27
2023-04-27T07:39:51.921Z,1.90
2023-04-27T07:42:23.583Z,2.20
2023-04-27T07:44:52.114Z,2.00
2023-04-27T07:47:20.159Z,1.83
2023-04-27T07:49:48.240Z,1.80
2023-04-27T07:52:16.497Z,2.07
2023-04-27T07:54:44.554Z,2.37
2023-04-27T07:57:12.791Z,1.90
2023-04-27T07:59:42.221Z,1.87
2023-04-27T08:02:18.291Z,1.90
2023-04-27T08:04:48.230Z,1.90
2023-04-27T08:07:17.587Z,1.87
2023-04-27T08:09:46.064Z,2.00
2023-04-27T08:12:14.073Z,2.10
2023-04-27T08:14:43.545Z,2.33
2023-04-27T08:17:11.801Z,2.10
2023-04-27T08:19:39.870Z,2.13
2023-04-27T08:22:08.561Z,1.93
2023-04-27T08:24:37.399Z,2.60
2023-04-27T08:27:06.553Z,2.33
2023-04-27T08:29:34.827Z,2.17
2023-04-27T08:32:05.437Z,2.40
2023-04-27T08:34:33.528Z,2.60
2023-04-27T08:37:03.266Z,2.50
2023-04-27T08:39:31.336Z,2.30
2023-04-27T08:41:59.470Z,2.50
2023-04-27T08:44:27.604Z,2.13
2023-04-27T08:46:55.700Z,2.43
2023-04-27T08:49:25.100Z,2.07
2023-04-27T08:51:53.083Z,2.60
2023-04-27T08:54:21.851Z,2.50
2023-04-27T08:56:49.921Z,2.20
2023-04-27T08:59:18.098Z,2.50
2023-04-27T09:01:48.491Z,2.30
2023-04-27T09:04:17.886Z,2.33
2023-04-27T09:06:49.023Z,2.20
2023-04-27T09:09:24.328Z,2.30
2023-04-27T09:11:52.400Z,2.37
2023-04-27T09:14:22.505Z,2.37
2023-04-27T09:16:57.393Z,2.13
2023-04-27T09:19:26.633Z,2.70
2023-04-27T09:22:06.404Z,2.70
2023-04-27T09:24:34.779Z,2.83
2023-04-27T09:27:03.183Z,2.53
2023-04-27T09:29:35.107Z,2.90
2023-04-27T09:32:03.651Z,3.00
2023-04-27T09:34:41.857Z,2.97
2023-04-27T09:37:11.628Z,3.10
2023-04-27T09:39:39.897Z,2.63
2023-04-27T09:42:08.441Z,2.93
2023-04-27T09:44:37.066Z,2.80
2023-04-27T09:47:06.239Z,3.17
2023-04-27T09:49:36.233Z,3.00
2023-04-27T09:52:04.450Z,2.77
2023-04-27T09:54:35.634Z,2.90
2023-04-27T09:57:13.765Z,3.10
2023-04-27T09:59:59.489Z,3.17
2023-04-27T10:02:29.793Z,3.30
2023-04-27T10:05:15.062Z,3.07
2023-04-27T10:07:43.421Z,2.90
2023-04-27T10:10:20.321Z,2.70
2023-04-27T10:12:58.204Z,2.47
2023-04-27T10:15:30.873Z,3.00
2023-04-27T10:18:06.153Z,3.03
2023-04-27T10:20:35.817Z,2.83
2023-04-27T10:23:04.532Z,2.60
2023-04-27T10:25:40.453Z,2.87
2023-04-27T10:28:09.042Z,2.17
2023-04-27T10:30:38.372Z,2.40
2023-04-27T10:33:08.496Z,2.33
2023-04-27T10:35:38.493Z,1.90
2023-04-27T10:38:08.485Z,2.50
2023-04-27T10:40:38.547Z,2.17
2023-04-27T10:43:11.151Z,2.10
2023-04-27T10:45:39.569Z,2.23
2023-04-27T10:48:08.239Z,2.03
2023-04-27T10:50:36.979Z,2.40
2023-04-27T10:53:07.017Z,2.33
2023-04-27T10:55:36.053Z,2.37
2023-04-27T10:58:06.009Z,2.50
2023-04-27T11:00:35.238Z,2.10
2023-04-27T11:03:14.422Z,2.90
2023-04-27T11:05:43.102Z,2.40
2023-04-27T11:08:12.799Z,2.50
2023-04-27T11:10:42.209Z,2.50
2023-04-27T11:13:13.341Z,2.60
2023-04-27T11:15:48.991Z,2.40
2023-04-27T11:18:18.384Z,2.57
2023-04-27T11:20:49.556Z,1.93
2023-04-27T11:23:29.001Z,2.60
2023-04-27T11:25:57.894Z,2.40
2023-04-27T11:28:27.275Z,2.17
2023-04-27T11:30:58.861Z,2.70
2023-04-27T11:33:27.614Z,2.30
2023-04-27T11:35:56.444Z,2.50
2023-04-27T11:38:25.066Z,2.53
2023-04-27T11:41:05.198Z,2.60
2023-04-27T11:43:35.526Z,2.30
2023-04-27T11:46:08.267Z,2.73
2023-04-27T11:48:38.388Z,2.60
2023-04-27T11:51:06.879Z,2.13
2023-04-27T11:53:37.211Z,2.20
2023-04-27T11:56:07.841Z,2.43
2023-04-27T11:58:38.488Z,2.67
2023-04-27T12:01:07.492Z,2.57
2023-04-27T12:03:36.567Z,2.50
2023-04-27T12:06:21.647Z,2.30
2023-04-27T12:08:53.433Z,2.33
2023-04-27T12:11:21.844Z,2.00
2023-04-27T12:13:51.434Z,2.57
2023-04-27T12:16:21.782Z,2.10
2023-04-27T12:18:50.744Z,2.20
2023-04-27T12:21:19.330Z,2.63
2023-04-27T12:23:47.348Z,2.00
2023-04-27T12:26:15.565Z,2.07
2023-04-27T12:28:43.711Z,2.30
2023-04-27T12:31:18.797Z,2.00
2023-04-27T12:33:49.183Z,2.27
2023-04-27T12:36:17.352Z,2.20
2023-04-27T12:38:45.509Z,2.43
2023-04-27T12:41:13.625Z,2.40
2023-04-27T12:43:42.764Z,2.90
2023-04-27T12:46:12.837Z,2.70
2023-04-27T12:48:41.103Z,2.40
2023-04-27T12:51:09.273Z,2.70
2023-04-27T12:53:37.662Z,2.40
2023-04-27T12:56:06.348Z,2.63
2023-04-27T12:58:34.402Z,2.73
2023-04-27T13:01:02.451Z,2.60
2023-04-27T13:03:32.330Z,3.00
2023-04-27T13:06:00.560Z,2.80
2023-04-27T13:08:28.814Z,2.60
2023-04-27T13:11:20.400Z,2.87
2023-04-27T13:13:52.309Z,2.53
2023-04-27T13:16:25.368Z,2.50
2023-04-27T13:18:55.585Z,2.80
2023-04-27T13:21:23.696Z,2.63
2023-04-27T13:23:54.729Z,2.80
2023-04-27T13:26:22.762Z,3.20
2023-04-27T13:28:50.933Z,3.00
2023-04-27T13:31:19.374Z,2.80
2023-04-27T13:33:47.533Z,2.93
2023-04-27T13:36:16.940Z,2.87
2023-04-27T13:38:45.031Z,3.50
2023-04-27T13:41:13.106Z,3.43
2023-04-27T13:43:41.127Z,3.53
2023-04-27T13:46:09.140Z,3.53
2023-04-27T13:48:37.246Z,3.43
2023-04-27T13:51:05.905Z,3.87
2023-04-27T13:53:35.259Z,3.40
2023-04-27T13:56:03.324Z,3.40
2023-04-27T13:58:32.650Z,3.90
2023-04-27T14:01:00.997Z,4.03
2023-04-27T14:03:29.654Z,4.47
2023-04-27T14:05:57.870Z,4.00
2023-04-27T14:08:25.945Z,4.20
2023-04-27T14:10:55.939Z,3.70
2023-04-27T14:13:23.978Z,4.00
2023-04-27T14:15:52.006Z,4.20
2023-04-27T14:18:20.133Z,4.10
2023-04-27T14:20:48.392Z,4.17
2023-04-27T14:23:16.481Z,3.97
2023-04-27T14:25:44.544Z,3.90
2023-04-27T14:28:14.741Z,4.07
2023-04-27T14:30:42.803Z,4.30
2023-04-27T14:33:10.844Z,4.80
2023-04-27T14:35:39.042Z,4.30
2023-04-27T14:38:07.077Z,4.70
2023-04-27T14:40:35.121Z,4.37
2023-04-27T14:43:03.293Z,5.20
2023-04-27T14:45:43.662Z,5.20
2023-04-27T14:48:18.739Z,4.67
2023-04-27T14:50:47.180Z,5.10
2023-04-27T14:53:15.266Z,4.97
2023-04-27T14:55:45.746Z,5.47
2023-04-27T14:58:13.956Z,4.87
2023-04-27T15:00:43.406Z,4.77
2023-04-27T15:03:11.592Z,5.00
2023-04-27T15:05:39.963Z,5.10
2023-04-27T15:08:08.012Z,5.67
2023-04-27T15:10:36.139Z,5.17
2023-04-27T15:13:04.480Z,5.63
2023-04-27T15:15:32.482Z,4.83
2023-04-27T15:18:02.091Z,5.23
2023-04-27T15:20:30.210Z,5.40
2023-04-27T15:22:58.233Z,5.20
2023-04-27T15:25:26.273Z,5.40
2023-04-27T15:27:54.298Z,5.57
2023-04-27T15:30:22.330Z,5.37
2023-04-27T15:32:50.512Z,5.70
2023-04-27T15:35:19.960Z,5.47
2023-04-27T15:37:48.061Z,5.97
2023-04-27T15:40:16.321Z,5.80
2023-04-27T15:42:44.378Z,6.10
2023-04-27T15:45:12.644Z,6.13
2023-04-27T15:47:40.795Z,6.23
2023-04-27T15:50:09.743Z,5.80
2023-04-27T15:52:39.183Z,5.10
2023-04-27T15:55:08.470Z,6.13
2023-04-27T15:57:36.559Z,6.33
2023-04-27T16:00:10.100Z,5.63
2023-04-27T16:02:41.573Z,5.83
2023-04-27T16:05:10.852Z,5.30
2023-04-27T16:07:41.248Z,4.60
2023-04-27T16:10:11.700Z,5.53
2023-04-27T16:12:39.927Z,5.10
2023-04-27T16:15:11.351Z,5.20
2023-04-27T16:17:40.110Z,5.70
2023-04-27T16:20:09.569Z,5.57
2023-04-27T16:22:39.917Z,5.60
2023-04-27T16:25:10.786Z,5.33
2023-04-27T16:27:39.416Z,6.00
2023-04-27T16:30:09.052Z,5.83
2023-04-27T16:32:38.464Z,5.60
2023-04-27T16:35:07.630Z,5.60
2023-04-27T16:37:35.904Z,5.97
2023-04-27T16:40:06.998Z,5.73
2023-04-27T16:42:35.532Z,4.87
2023-04-27T16:45:03.747Z,5.53
2023-04-27T16:47:32.410Z,5.40
2023-04-27T16:50:00.759Z,5.30
2023-04-27T16:52:28.814Z,4.90
2023-04-27T16:54:56.853Z,4.90
2023-04-27T16:57:26.881Z,4.83
2023-04-27T16:59:55.016Z,5.30
2023-04-27T17:02:25.655Z,5.37
2023-04-27T17:04:54.201Z,4.73
2023-04-27T17:07:22.376Z,5.00
2023-04-27T17:09:50.460Z,4.90
2023-04-27T17:12:18.490Z,4.77
2023-04-27T17:14:47.984Z,4.90
2023-04-27T17:17:16.093Z,4.53
2023-04-27T17:19:44.125Z,4.90
2023-04-27T17:22:13.243Z,4.90
2023-04-27T17:24:41.397Z,5.00
2023-04-27T17:27:09.584Z,5.23
2023-04-27T17:29:37.812Z,5.30
2023-04-27T17:32:07.413Z,4.83
2023-04-27T17:34:35.437Z,4.77
2023-04-27T17:37:03.490Z,4.90
2023-04-27T17:39:31.497Z,4.80
2023-04-27T17:41:59.532Z,4.60
2023-04-27T17:44:27.562Z,4.80
2023-04-27T17:46:55.962Z,5.03
2023-04-27T17:49:25.754Z,4.93
2023-04-27T17:51:53.796Z,5.80
2023-04-27T17:54:21.779Z,4.97
2023-04-27T17:56:49.826Z,4.83
2023-04-27T17:59:18.034Z,4.60
2023-04-27T18:01:46.148Z,4.80
2023-04-27T18:04:14.383Z,4.70
2023-04-27T18:06:44.096Z,5.00
2023-04-27T18:09:13.075Z,4.70
2023-04-27T18:11:41.240Z,4.40
2023-04-27T18:14:09.273Z,4.77
2023-04-27T18:16:37.399Z,5.30
2023-04-27T18:19:05.485Z,5.40
2023-04-27T18:21:33.583Z,4.53
2023-04-27T18:24:03.132Z,4.70
2023-04-27T18:26:31.463Z,4.50
2023-04-27T18:28:59.610Z,4.57
2023-04-27T18:31:27.688Z,4.40
2023-04-27T18:33:56.051Z,4.50
2023-04-27T18:36:25.613Z,4.10
2023-04-27T18:38:53.666Z,4.43
2023-04-27T18:41:23.705Z,4.40
2023-04-27T18:43:52.164Z,4.23
2023-04-27T18:46:20.810Z,3.90
2023-04-27T18:48:48.874Z,4.27
2023-04-27T18:51:16.889Z,4.23
2023-04-27T18:53:44.903Z,3.80
2023-04-27T18:56:14.530Z,3.80
2023-04-27T18:58:43.934Z,3.90
2023-04-27T19:01:19.696Z,3.97
2023-04-27T19:03:47.982Z,4.33
2023-04-27T19:06:16.236Z,3.90
2023-04-27T19:08:45.321Z,4.40
2023-04-27T19:11:14.190Z,3.93
2023-04-27T19:13:45.161Z,4.17
2023-04-27T19:16:15.296Z,4.00
2023-04-27T19:18:43.517Z,4.20
2023-04-27T19:21:11.726Z,3.83
2023-04-27T19:23:40.966Z,3.90
2023-04-27T19:26:13.075Z,4.13
2023-04-27T19:28:43.534Z,4.37
2023-04-27T19:31:11.786Z,4.03
2023-04-27T19:33:46.812Z,3.67
2023-04-27T19:36:15.182Z,3.50
2023-04-27T19:38:43.259Z,4.17
2023-04-27T19:41:13.900Z,3.77
2023-04-27T19:43:43.417Z,4.20
2023-04-27T19:46:11.590Z,3.30
2023-04-27T19:48:41.109Z,4.03
2023-04-27T19:51:11.078Z,3.73
2023-04-27T19:53:39.580Z,4.50
2023-04-27T19:56:07.732Z,3.70
2023-04-27T19:58:36.020Z,3.60
2023-04-27T20:01:06.185Z,3.70
2023-04-27T20:03:35.549Z,3.73
2023-04-27T20:06:04.319Z,3.47
2023-04-27T20:08:34.083Z,3.80
2023-04-27T20:11:02.198Z,3.53
2023-04-27T20:13:30.208Z,4.00
2023-04-27T20:15:59.177Z,3.30
2023-04-27T20:18:31.738Z,3.50
2023-04-27T20:21:00.331Z,3.90
2023-04-27T20:23:29.114Z,4.40
2023-04-27T20:25:57.276Z,3.83
2023-04-27T20:28:25.336Z,3.63
2023-04-27T20:30:53.407Z,4.83
2023-04-27T20:33:21.467Z,4.43
2023-04-27T20:35:55.540Z,4.67
2023-04-27T20:38:25.120Z,4.40
2023-04-27T20:40:54.275Z,4.33
2023-04-27T20:43:22.331Z,3.80
2023-04-27T20:45:50.678Z,3.60
2023-04-27T20:48:19.233Z,3.87
2023-04-27T20:50:47.320Z,4.10
2023-04-27T20:53:17.110Z,3.97
2023-04-27T20:55:46.114Z,3.90
2023-04-27T20:58:14.173Z,4.23
2023-04-27T21:00:42.200Z,4.50
2023-04-27T21:03:10.442Z,4.40
2023-04-27T21:05:38.596Z,4.73
2023-04-27T21:08:06.758Z,4.50
2023-04-27T21:10:36.361Z,3.63
2023-04-27T21:13:04.501Z,3.97
2023-04-27T21:15:33.469Z,3.80
2023-04-27T21:18:02.897Z,3.90
2023-04-27T21:20:31.122Z,4.40
2023-04-27T21:22:59.169Z,4.10
2023-04-27T21:25:27.234Z,3.87
2023-04-27T21:27:56.996Z,3.90
2023-04-27T21:30:25.312Z,3.60
2023-04-27T21:32:53.363Z,3.60
2023-04-27T21:35:21.457Z,3.63
2023-04-27T21:37:49.463Z,4.00
2023-04-27T21:40:17.624Z,4.40
2023-04-27T21:42:46.016Z,4.00
2023-04-27T21:45:15.448Z,4.07
2023-04-27T21:47:43.572Z,4.60
2023-04-27T21:50:12.102Z,4.30
2023-04-27T21:52:40.277Z,4.77
2023-04-27T21:55:08.525Z,4.77
2023-04-27T21:57:39.610Z,5.23
2023-04-27T22:00:13.797Z,4.73
2023-04-27T22:03:16.217Z,5.63
2023-04-27T22:05:45.286Z,4.50
2023-04-27T22:08:13.430Z,5.27
2023-04-27T22:10:41.667Z,5.53
2023-04-27T22:13:18.719Z,5.83
2023-04-27T22:15:48.055Z,5.20
2023-04-27T22:18:19.326Z,4.37
2023-04-27T22:20:47.434Z,5.50
2023-04-27T22:23:15.685Z,5.07
2023-04-27T22:25:43.868Z,4.80
2023-04-27T22:28:12.021Z,5.10
2023-04-27T22:30:41.441Z,5.07
2023-04-27T22:33:10.185Z,4.90
2023-04-27T22:35:39.971Z,5.57
2023-04-27T22:38:08.194Z,6.07
2023-04-27T22:40:36.704Z,5.57
2023-04-27T22:43:04.765Z,7.00
2023-04-27T22:45:32.801Z,7.43
2023-04-27T22:48:01.043Z,5.13
2023-04-27T22:50:30.562Z,6.47
2023-04-27T22:53:00.573Z,6.37
2023-04-27T22:55:28.748Z,5.53
2023-04-27T22:57:56.858Z,6.00
2023-04-27T23:00:25.067Z,5.97
2023-04-27T23:02:53.358Z,5.67
2023-04-27T23:05:21.650Z,6.30
2023-04-27T23:07:51.765Z,6.43
2023-04-27T23:10:21.405Z,7.00
2023-04-27T23:12:54.681Z,6.33
2023-04-27T23:15:23.899Z,6.93
2023-04-27T23:17:52.005Z,7.83
2023-04-27T23:20:28.226Z,7.13
2023-04-27T23:22:57.065Z,6.43
2023-04-27T23:25:26.531Z,7.47
2023-04-27T23:27:54.607Z,8.17
2023-04-27T23:30:23.238Z,5.97
2023-04-27T23:32:52.071Z,7.40
2023-04-27T23:35:20.355Z,7.10
2023-04-27T23:37:48.426Z,6.73
2023-04-27T23:40:16.702Z,6.43
2023-04-27T23:42:46.154Z,5.93
2023-04-27T23:45:14.204Z,5.60
2023-04-27T23:47:42.335Z,6.03
2023-04-27T23:50:10.770Z,6.23
2023-04-27T23:52:38.795Z,6.90
2023-04-27T23:55:10.445Z,6.90
2023-04-27T23:57:38.533Z,6.33
